sensor_id;sensor_type;location;lat;lon;timestamp;P1;durP1;ratioP1;P2;durP2;ratioP2
5630;SDS011;2837;50.990;7.124;2023-06-10T05:01:36;152.63;;;13.50;;
5630;SDS011;2837;50.990;7.124;2023-06-10T05:04:02;151.67;;;12.80;;
5630;SDS011;2837;50.990;7.124;2023-06-10T05:06:27;153.20;;;13.50;;
5630;SDS011;2837;50.990;7.124;2023-06-10T05:08:53;152.77;;;12.67;;
5630;SDS011;2837;50.990;7.124;2023-06-10T05:11:19;152.60;;;14.00;;
5630;SDS011;2837;50.990;7.124;2023-06-10T05:13:45;152.13;;;13.30;;
5630;SDS011;2837;50.990;7.124;2023-06-10T05:16:10;151.43;;;11.97;;
5630;SDS011;2837;50.990;7.124;2023-06-10T05:18:36;152.07;;;13.03;;
5630;SDS011;2837;50.990;7.124;2023-06-10T05:21:02;152.27;;;12.70;;
5630;SDS011;2837;50.990;7.124;2023-06-10T05:23:27;151.87;;;13.47;;
5630;SDS011;2837;50.990;7.124;2023-06-10T05:25:53;154.47;;;14.33;;
5630;SDS011;2837;50.990;7.124;2023-06-10T05:28:19;154.53;;;13.97;;
5630;SDS011;2837;50.990;7.124;2023-06-10T05:30:44;155.47;;;14.27;;
5630;SDS011;2837;50.990;7.124;2023-06-10T05:33:10;155.97;;;13.47;;
5630;SDS011;2837;50.990;7.124;2023-06-10T05:35:36;153.50;;;14.27;;
5630;SDS011;2837;50.990;7.124;2023-06-10T05:38:02;153.77;;;13.00;;
5630;SDS011;2837;50.990;7.124;2023-06-10T05:40:28;152.70;;;14.47;;
5630;SDS011;2837;50.990;7.124;2023-06-10T05:42:53;154.87;;;14.10;;
5630;SDS011;2837;50.990;7.124;2023-06-10T05:45:19;154.17;;;14.70;;
5630;SDS011;2837;50.990;7.124;2023-06-10T05:47:44;153.30;;;13.67;;
5630;SDS011;2837;50.990;7.124;2023-06-10T05:50:10;153.50;;;14.30;;
5630;SDS011;2837;50.990;7.124;2023-06-10T05:52:36;152.13;;;13.33;;
5630;SDS011;2837;50.990;7.124;2023-06-10T05:55:05;151.90;;;13.07;;
5630;SDS011;2837;50.990;7.124;2023-06-10T05:57:31;159.57;;;13.87;;
5630;SDS011;2837;50.990;7.124;2023-06-10T05:59:56;153.27;;;14.30;;
5630;SDS011;2837;50.990;7.124;2023-06-10T06:02:22;156.47;;;14.17;;
5630;SDS011;2837;50.990;7.124;2023-06-10T06:04:47;151.47;;;12.90;;
5630;SDS011;2837;50.990;7.124;2023-06-10T06:07:13;159.13;;;13.67;;
5630;SDS011;2837;50.990;7.124;2023-06-10T06:09:39;152.53;;;13.40;;
5630;SDS011;2837;50.990;7.124;2023-06-10T06:12:05;151.67;;;12.70;;
5630;SDS011;2837;50.990;7.124;2023-06-10T06:14:32;150.87;;;11.87;;
5630;SDS011;2837;50.990;7.124;2023-06-10T06:17:01;150.27;;;12.20;;
5630;SDS011;2837;50.990;7.124;2023-06-10T06:19:27;152.30;;;13.07;;
5630;SDS011;2837;50.990;7.124;2023-06-10T06:21:53;152.47;;;12.83;;
5630;SDS011;2837;50.990;7.124;2023-06-10T06:24:18;154.00;;;12.80;;
5630;SDS011;2837;50.990;7.124;2023-06-10T06:26:44;153.67;;;13.10;;
5630;SDS011;2837;50.990;7.124;2023-06-10T06:29:10;152.50;;;13.60;;
5630;SDS011;2837;50.990;7.124;2023-06-10T06:31:36;151.90;;;11.97;;
5630;SDS011;2837;50.990;7.124;2023-06-10T06:34:01;150.10;;;11.87;;
5630;SDS011;2837;50.990;7.124;2023-06-10T06:36:27;150.60;;;12.13;;
5630;SDS011;2837;50.990;7.124;2023-06-10T06:38:52;154.17;;;12.63;;
5630;SDS011;2837;50.990;7.124;2023-06-10T06:41:18;159.87;;;13.87;;
5630;SDS011;2837;50.990;7.124;2023-06-10T06:43:44;167.30;;;12.73;;
5630;SDS011;2837;50.990;7.124;2023-06-10T06:46:10;154.17;;;13.50;;
5630;SDS011;2837;50.990;7.124;2023-06-10T06:48:36;150.77;;;12.57;;
5630;SDS011;2837;50.990;7.124;2023-06-10T06:51:01;151.97;;;12.70;;
5630;SDS011;2837;50.990;7.124;2023-06-10T06:53:27;153.97;;;12.90;;
5630;SDS011;2837;50.990;7.124;2023-06-10T06:55:53;152.60;;;12.87;;
5630;SDS011;2837;50.990;7.124;2023-06-10T06:58:18;150.10;;;11.90;;
5630;SDS011;2837;50.990;7.124;2023-06-10T07:00:44;152.70;;;13.27;;
5630;SDS011;2837;50.990;7.124;2023-06-10T07:03:10;151.53;;;12.70;;
5630;SDS011;2837;50.990;7.124;2023-06-10T07:05:36;167.20;;;13.57;;
5630;SDS011;2837;50.990;7.124;2023-06-10T07:08:01;151.40;;;11.80;;
5630;SDS011;2837;50.990;7.124;2023-06-10T07:10:28;154.60;;;12.70;;
5630;SDS011;2837;50.990;7.124;2023-06-10T07:12:53;151.00;;;11.30;;
5630;SDS011;2837;50.990;7.124;2023-06-10T07:15:19;150.70;;;11.93;;
5630;SDS011;2837;50.990;7.124;2023-06-10T07:17:45;150.77;;;11.90;;
5630;SDS011;2837;50.990;7.124;2023-06-10T07:20:11;153.77;;;12.30;;
5630;SDS011;2837;50.990;7.124;2023-06-10T07:22:37;151.37;;;12.33;;
5630;SDS011;2837;50.990;7.124;2023-06-10T07:25:06;150.83;;;12.17;;
5630;SDS011;2837;50.990;7.124;2023-06-10T07:27:32;151.80;;;11.83;;
5630;SDS011;2837;50.990;7.124;2023-06-10T07:29:58;154.37;;;12.50;;
5630;SDS011;2837;50.990;7.124;2023-06-10T07:32:25;150.87;;;11.20;;
5630;SDS011;2837;50.990;7.124;2023-06-10T07:34:51;150.37;;;12.10;;
5630;SDS011;2837;50.990;7.124;2023-06-10T07:37:17;150.27;;;11.80;;
5630;SDS011;2837;50.990;7.124;2023-06-10T07:39:44;153.27;;;11.17;;
5630;SDS011;2837;50.990;7.124;2023-06-10T07:42:10;150.07;;;11.43;;
5630;SDS011;2837;50.990;7.124;2023-06-10T07:44:36;151.97;;;12.17;;
5630;SDS011;2837;50.990;7.124;2023-06-10T07:47:02;151.50;;;11.30;;
5630;SDS011;2837;50.990;7.124;2023-06-10T07:49:28;152.00;;;11.70;;
5630;SDS011;2837;50.990;7.124;2023-06-10T07:51:55;149.70;;;11.30;;
5630;SDS011;2837;50.990;7.124;2023-06-10T07:54:21;150.27;;;11.37;;
5630;SDS011;2837;50.990;7.124;2023-06-10T07:56:47;148.97;;;10.80;;
5630;SDS011;2837;50.990;7.124;2023-06-10T07:59:13;150.00;;;10.60;;
5630;SDS011;2837;50.990;7.124;2023-06-10T08:01:39;161.00;;;11.30;;
5630;SDS011;2837;50.990;7.124;2023-06-10T08:04:05;150.20;;;11.50;;
5630;SDS011;2837;50.990;7.124;2023-06-10T08:06:31;150.80;;;11.77;;
5630;SDS011;2837;50.990;7.124;2023-06-10T08:08:57;150.13;;;11.37;;
5630;SDS011;2837;50.990;7.124;2023-06-10T08:11:23;156.40;;;11.10;;
5630;SDS011;2837;50.990;7.124;2023-06-10T08:13:48;150.77;;;11.30;;
5630;SDS011;2837;50.990;7.124;2023-06-10T08:16:14;150.87;;;11.60;;
5630;SDS011;2837;50.990;7.124;2023-06-10T08:18:40;150.20;;;11.40;;
5630;SDS011;2837;50.990;7.124;2023-06-10T08:21:06;151.53;;;11.10;;
5630;SDS011;2837;50.990;7.124;2023-06-10T08:23:32;152.60;;;12.27;;
5630;SDS011;2837;50.990;7.124;2023-06-10T08:25:58;148.67;;;10.33;;
5630;SDS011;2837;50.990;7.124;2023-06-10T08:28:24;149.57;;;11.10;;
5630;SDS011;2837;50.990;7.124;2023-06-10T08:30:49;150.07;;;11.40;;
5630;SDS011;2837;50.990;7.124;2023-06-10T08:33:15;147.90;;;10.03;;
5630;SDS011;2837;50.990;7.124;2023-06-10T08:35:41;148.90;;;10.30;;
5630;SDS011;2837;50.990;7.124;2023-06-10T08:38:07;150.23;;;11.17;;
5630;SDS011;2837;50.990;7.124;2023-06-10T08:40:33;150.57;;;11.93;;
5630;SDS011;2837;50.990;7.124;2023-06-10T08:45:31;151.57;;;11.57;;
5630;SDS011;2837;50.990;7.124;2023-06-10T08:48:00;149.63;;;10.80;;
5630;SDS011;2837;50.990;7.124;2023-06-10T08:50:31;150.77;;;11.70;;
5630;SDS011;2837;50.990;7.124;2023-06-10T08:52:59;148.47;;;10.37;;
5630;SDS011;2837;50.990;7.124;2023-06-10T08:55:27;148.67;;;11.23;;
5630;SDS011;2837;50.990;7.124;2023-06-10T08:57:57;151.13;;;11.13;;
5630;SDS011;2837;50.990;7.124;2023-06-10T09:00:24;151.67;;;11.00;;
5630;SDS011;2837;50.990;7.124;2023-06-10T09:02:50;148.40;;;9.90;;
5630;SDS011;2837;50.990;7.124;2023-06-10T09:05:17;149.30;;;11.50;;
5630;SDS011;2837;50.990;7.124;2023-06-10T09:07:43;148.57;;;11.37;;
5630;SDS011;2837;50.990;7.124;2023-06-10T09:10:10;149.77;;;11.50;;
5630;SDS011;2837;50.990;7.124;2023-06-10T09:12:36;149.93;;;11.03;;
5630;SDS011;2837;50.990;7.124;2023-06-10T09:15:06;148.27;;;10.93;;
5630;SDS011;2837;50.990;7.124;2023-06-10T09:17:32;148.77;;;10.90;;
5630;SDS011;2837;50.990;7.124;2023-06-10T09:19:59;149.83;;;11.00;;
5630;SDS011;2837;50.990;7.124;2023-06-10T09:22:25;155.00;;;12.50;;
5630;SDS011;2837;50.990;7.124;2023-06-10T09:24:51;155.07;;;11.67;;
5630;SDS011;2837;50.990;7.124;2023-06-10T09:27:29;149.60;;;10.93;;
5630;SDS011;2837;50.990;7.124;2023-06-10T09:29:56;148.40;;;11.60;;
5630;SDS011;2837;50.990;7.124;2023-06-10T09:32:23;149.67;;;12.40;;
5630;SDS011;2837;50.990;7.124;2023-06-10T09:34:49;149.93;;;11.77;;
5630;SDS011;2837;50.990;7.124;2023-06-10T09:37:22;151.33;;;12.10;;
5630;SDS011;2837;50.990;7.124;2023-06-10T09:40:04;150.97;;;11.97;;
5630;SDS011;2837;50.990;7.124;2023-06-10T09:42:35;148.50;;;10.50;;
5630;SDS011;2837;50.990;7.124;2023-06-10T09:45:05;149.10;;;11.50;;
5630;SDS011;2837;50.990;7.124;2023-06-10T09:47:32;149.97;;;11.83;;
5630;SDS011;2837;50.990;7.124;2023-06-10T09:49:58;149.50;;;11.67;;
5630;SDS011;2837;50.990;7.124;2023-06-10T09:52:24;148.37;;;10.20;;
5630;SDS011;2837;50.990;7.124;2023-06-10T09:54:51;147.83;;;10.93;;
5630;SDS011;2837;50.990;7.124;2023-06-10T09:57:17;150.07;;;11.20;;
5630;SDS011;2837;50.990;7.124;2023-06-10T09:59:44;149.17;;;10.40;;
5630;SDS011;2837;50.990;7.124;2023-06-10T10:02:17;148.77;;;10.63;;
5630;SDS011;2837;50.990;7.124;2023-06-10T10:04:43;151.47;;;10.60;;
5630;SDS011;2837;50.990;7.124;2023-06-10T10:07:09;148.57;;;11.10;;
5630;SDS011;2837;50.990;7.124;2023-06-10T10:09:37;147.70;;;10.63;;
5630;SDS011;2837;50.990;7.124;2023-06-10T10:12:05;148.10;;;10.87;;
5630;SDS011;2837;50.990;7.124;2023-06-10T10:14:36;150.27;;;11.37;;
5630;SDS011;2837;50.990;7.124;2023-06-10T10:17:02;147.17;;;10.37;;
5630;SDS011;2837;50.990;7.124;2023-06-10T10:19:32;149.23;;;11.13;;
5630;SDS011;2837;50.990;7.124;2023-06-10T10:22:03;148.10;;;11.60;;
5630;SDS011;2837;50.990;7.124;2023-06-10T10:24:36;149.97;;;10.73;;
5630;SDS011;2837;50.990;7.124;2023-06-10T10:27:11;149.17;;;11.00;;
5630;SDS011;2837;50.990;7.124;2023-06-10T10:29:42;148.17;;;11.00;;
5630;SDS011;2837;50.990;7.124;2023-06-10T10:32:11;146.80;;;10.07;;
5630;SDS011;2837;50.990;7.124;2023-06-10T10:37:13;146.37;;;10.13;;
5630;SDS011;2837;50.990;7.124;2023-06-10T10:39:39;146.53;;;10.77;;
5630;SDS011;2837;50.990;7.124;2023-06-10T10:42:05;148.57;;;10.93;;
5630;SDS011;2837;50.990;7.124;2023-06-10T10:44:34;147.07;;;11.40;;
5630;SDS011;2837;50.990;7.124;2023-06-10T10:47:02;147.00;;;11.43;;
5630;SDS011;2837;50.990;7.124;2023-06-10T10:49:29;146.77;;;10.37;;
5630;SDS011;2837;50.990;7.124;2023-06-10T10:54:29;147.40;;;10.80;;
5630;SDS011;2837;50.990;7.124;2023-06-10T10:57:11;145.60;;;10.23;;
5630;SDS011;2837;50.990;7.124;2023-06-10T11:04:56;146.80;;;10.40;;
5630;SDS011;2837;50.990;7.124;2023-06-10T11:07:22;159.20;;;10.70;;
5630;SDS011;2837;50.990;7.124;2023-06-10T11:09:59;146.67;;;10.67;;
5630;SDS011;2837;50.990;7.124;2023-06-10T11:15:11;150.80;;;11.60;;
5630;SDS011;2837;50.990;7.124;2023-06-10T11:17:37;147.87;;;10.60;;
5630;SDS011;2837;50.990;7.124;2023-06-10T11:29:08;147.77;;;11.20;;
5630;SDS011;2837;50.990;7.124;2023-06-10T11:31:41;147.63;;;11.17;;
5630;SDS011;2837;50.990;7.124;2023-06-10T11:34:09;147.60;;;11.57;;
5630;SDS011;2837;50.990;7.124;2023-06-10T11:36:39;147.83;;;11.10;;
5630;SDS011;2837;50.990;7.124;2023-06-10T11:39:08;146.60;;;10.83;;
5630;SDS011;2837;50.990;7.124;2023-06-10T11:41:35;146.53;;;11.03;;
5630;SDS011;2837;50.990;7.124;2023-06-10T11:44:03;147.70;;;11.77;;
5630;SDS011;2837;50.990;7.124;2023-06-10T11:46:32;147.73;;;11.73;;
5630;SDS011;2837;50.990;7.124;2023-06-10T11:48:58;149.07;;;11.97;;
5630;SDS011;2837;50.990;7.124;2023-06-10T11:51:28;146.77;;;11.20;;
5630;SDS011;2837;50.990;7.124;2023-06-10T11:53:55;146.27;;;11.10;;
5630;SDS011;2837;50.990;7.124;2023-06-10T11:56:21;146.47;;;11.50;;
5630;SDS011;2837;50.990;7.124;2023-06-10T11:58:52;146.67;;;11.20;;
5630;SDS011;2837;50.990;7.124;2023-06-10T12:01:19;148.50;;;11.30;;
5630;SDS011;2837;50.990;7.124;2023-06-10T12:03:46;145.40;;;10.40;;
5630;SDS011;2837;50.990;7.124;2023-06-10T12:06:12;145.23;;;10.23;;
5630;SDS011;2837;50.990;7.124;2023-06-10T12:08:41;146.00;;;10.30;;
5630;SDS011;2837;50.990;7.124;2023-06-10T12:11:08;145.67;;;10.87;;
5630;SDS011;2837;50.990;7.124;2023-06-10T12:13:34;147.00;;;10.13;;
5630;SDS011;2837;50.990;7.124;2023-06-10T12:16:07;145.10;;;9.67;;
5630;SDS011;2837;50.990;7.124;2023-06-10T12:18:33;149.10;;;10.63;;
5630;SDS011;2837;50.990;7.124;2023-06-10T12:20:59;146.57;;;10.43;;
5630;SDS011;2837;50.990;7.124;2023-06-10T12:23:25;154.50;;;10.80;;
5630;SDS011;2837;50.990;7.124;2023-06-10T12:25:51;154.80;;;11.13;;
5630;SDS011;2837;50.990;7.124;2023-06-10T12:28:20;147.27;;;11.20;;
5630;SDS011;2837;50.990;7.124;2023-06-10T12:30:49;147.57;;;10.20;;
5630;SDS011;2837;50.990;7.124;2023-06-10T12:33:16;146.60;;;10.37;;
5630;SDS011;2837;50.990;7.124;2023-06-10T12:35:52;146.93;;;10.27;;
5630;SDS011;2837;50.990;7.124;2023-06-10T12:38:21;145.60;;;10.30;;
5630;SDS011;2837;50.990;7.124;2023-06-10T12:40:49;146.97;;;10.90;;
5630;SDS011;2837;50.990;7.124;2023-06-10T12:43:19;148.90;;;9.97;;
5630;SDS011;2837;50.990;7.124;2023-06-10T14:01:37;144.35;;;9.63;;
5630;SDS011;2837;50.990;7.124;2023-06-10T14:04:03;143.90;;;9.60;;
5630;SDS011;2837;50.990;7.124;2023-06-10T14:06:29;152.37;;;9.33;;
5630;SDS011;2837;50.990;7.124;2023-06-10T14:08:55;143.43;;;9.17;;
5630;SDS011;2837;50.990;7.124;2023-06-10T14:11:21;144.80;;;10.07;;
5630;SDS011;2837;50.990;7.124;2023-06-10T14:13:47;145.23;;;10.07;;
5630;SDS011;2837;50.990;7.124;2023-06-10T14:16:13;144.27;;;10.00;;
5630;SDS011;2837;50.990;7.124;2023-06-10T14:18:39;147.80;;;10.27;;
5630;SDS011;2837;50.990;7.124;2023-06-10T14:21:05;143.00;;;9.70;;
5630;SDS011;2837;50.990;7.124;2023-06-10T14:23:31;150.40;;;9.80;;
5630;SDS011;2837;50.990;7.124;2023-06-10T14:25:57;143.27;;;9.93;;
5630;SDS011;2837;50.990;7.124;2023-06-10T14:28:24;146.37;;;10.10;;
5630;SDS011;2837;50.990;7.124;2023-06-10T14:30:51;147.50;;;9.97;;
5630;SDS011;2837;50.990;7.124;2023-06-10T14:33:17;148.37;;;10.73;;
5630;SDS011;2837;50.990;7.124;2023-06-10T14:35:43;145.67;;;9.93;;
5630;SDS011;2837;50.990;7.124;2023-06-10T14:38:09;145.27;;;9.87;;
5630;SDS011;2837;50.990;7.124;2023-06-10T14:40:35;147.40;;;9.97;;
5630;SDS011;2837;50.990;7.124;2023-06-10T14:43:01;154.17;;;9.97;;
5630;SDS011;2837;50.990;7.124;2023-06-10T14:45:29;146.53;;;10.03;;
5630;SDS011;2837;50.990;7.124;2023-06-10T14:47:55;143.70;;;9.10;;
5630;SDS011;2837;50.990;7.124;2023-06-10T14:50:21;145.67;;;10.30;;
5630;SDS011;2837;50.990;7.124;2023-06-10T14:52:47;144.37;;;9.67;;
5630;SDS011;2837;50.990;7.124;2023-06-10T14:55:13;145.23;;;9.30;;
5630;SDS011;2837;50.990;7.124;2023-06-10T14:57:41;144.07;;;9.63;;
5630;SDS011;2837;50.990;7.124;2023-06-10T15:00:07;143.70;;;10.00;;
5630;SDS011;2837;50.990;7.124;2023-06-10T15:02:33;144.03;;;9.60;;
5630;SDS011;2837;50.990;7.124;2023-06-10T15:04:59;145.10;;;8.67;;
5630;SDS011;2837;50.990;7.124;2023-06-10T15:07:25;143.60;;;9.33;;
5630;SDS011;2837;50.990;7.124;2023-06-10T15:09:51;143.73;;;9.60;;
5630;SDS011;2837;50.990;7.124;2023-06-10T15:12:17;143.80;;;9.40;;
5630;SDS011;2837;50.990;7.124;2023-06-10T15:14:43;143.07;;;9.00;;
5630;SDS011;2837;50.990;7.124;2023-06-10T15:17:09;143.77;;;9.30;;
5630;SDS011;2837;50.990;7.124;2023-06-10T15:19:35;146.60;;;10.20;;
5630;SDS011;2837;50.990;7.124;2023-06-10T15:22:01;143.17;;;9.07;;
5630;SDS011;2837;50.990;7.124;2023-06-10T15:24:27;142.93;;;9.03;;
5630;SDS011;2837;50.990;7.124;2023-06-10T15:26:53;143.90;;;9.77;;
5630;SDS011;2837;50.990;7.124;2023-06-10T15:29:19;145.87;;;10.07;;
5630;SDS011;2837;50.990;7.124;2023-06-10T15:31:45;150.23;;;10.13;;
5630;SDS011;2837;50.990;7.124;2023-06-10T15:34:11;145.77;;;9.93;;
5630;SDS011;2837;50.990;7.124;2023-06-10T15:36:37;144.20;;;8.80;;
5630;SDS011;2837;50.990;7.124;2023-06-10T15:39:04;143.83;;;10.03;;
5630;SDS011;2837;50.990;7.124;2023-06-10T15:41:31;143.07;;;9.13;;
5630;SDS011;2837;50.990;7.124;2023-06-10T15:43:57;142.43;;;9.20;;
5630;SDS011;2837;50.990;7.124;2023-06-10T15:46:27;143.97;;;9.10;;
5630;SDS011;2837;50.990;7.124;2023-06-10T15:48:56;145.57;;;9.80;;
5630;SDS011;2837;50.990;7.124;2023-06-10T15:51:22;144.37;;;10.23;;
5630;SDS011;2837;50.990;7.124;2023-06-10T15:53:48;143.17;;;9.67;;
5630;SDS011;2837;50.990;7.124;2023-06-10T15:56:15;143.43;;;9.33;;
5630;SDS011;2837;50.990;7.124;2023-06-10T15:58:41;143.57;;;9.20;;
5630;SDS011;2837;50.990;7.124;2023-06-10T16:01:07;145.00;;;10.00;;
5630;SDS011;2837;50.990;7.124;2023-06-10T16:03:34;144.30;;;9.30;;
5630;SDS011;2837;50.990;7.124;2023-06-10T16:06:00;146.10;;;9.50;;
5630;SDS011;2837;50.990;7.124;2023-06-10T16:08:26;142.67;;;9.57;;
5630;SDS011;2837;50.990;7.124;2023-06-10T16:10:53;144.37;;;9.67;;
5630;SDS011;2837;50.990;7.124;2023-06-10T16:13:19;144.00;;;9.90;;
5630;SDS011;2837;50.990;7.124;2023-06-10T16:15:45;143.97;;;8.97;;
5630;SDS011;2837;50.990;7.124;2023-06-10T16:18:11;145.57;;;9.40;;
5630;SDS011;2837;50.990;7.124;2023-06-10T16:20:37;143.17;;;9.30;;
5630;SDS011;2837;50.990;7.124;2023-06-10T16:23:03;144.67;;;9.73;;
5630;SDS011;2837;50.990;7.124;2023-06-10T16:25:29;142.60;;;8.80;;
5630;SDS011;2837;50.990;7.124;2023-06-10T16:27:56;143.77;;;9.97;;
5630;SDS011;2837;50.990;7.124;2023-06-10T16:30:22;144.17;;;8.90;;
5630;SDS011;2837;50.990;7.124;2023-06-10T16:32:48;144.00;;;9.70;;
5630;SDS011;2837;50.990;7.124;2023-06-10T16:35:14;144.57;;;10.40;;
5630;SDS011;2837;50.990;7.124;2023-06-10T16:37:40;143.60;;;9.20;;
5630;SDS011;2837;50.990;7.124;2023-06-10T16:40:06;144.47;;;9.53;;
5630;SDS011;2837;50.990;7.124;2023-06-10T16:42:33;144.57;;;9.83;;
5630;SDS011;2837;50.990;7.124;2023-06-10T16:44:58;147.23;;;8.90;;
5630;SDS011;2837;50.990;7.124;2023-06-10T16:47:24;146.57;;;9.70;;
5630;SDS011;2837;50.990;7.124;2023-06-10T16:49:50;144.27;;;10.03;;
5630;SDS011;2837;50.990;7.124;2023-06-10T16:52:16;143.80;;;9.27;;
5630;SDS011;2837;50.990;7.124;2023-06-10T16:54:42;144.97;;;10.53;;
5630;SDS011;2837;50.990;7.124;2023-06-10T16:57:09;143.77;;;9.87;;
5630;SDS011;2837;50.990;7.124;2023-06-10T16:59:35;143.00;;;9.40;;
5630;SDS011;2837;50.990;7.124;2023-06-10T17:02:01;145.00;;;9.60;;
5630;SDS011;2837;50.990;7.124;2023-06-10T17:04:27;144.17;;;9.67;;
5630;SDS011;2837;50.990;7.124;2023-06-10T17:06:53;143.90;;;9.10;;
5630;SDS011;2837;50.990;7.124;2023-06-10T17:09:19;143.10;;;8.90;;
5630;SDS011;2837;50.990;7.124;2023-06-10T17:11:45;143.70;;;9.53;;
5630;SDS011;2837;50.990;7.124;2023-06-10T17:14:11;142.37;;;8.43;;
5630;SDS011;2837;50.990;7.124;2023-06-10T17:16:37;145.07;;;10.07;;
5630;SDS011;2837;50.990;7.124;2023-06-10T17:19:03;143.60;;;9.53;;
5630;SDS011;2837;50.990;7.124;2023-06-10T17:21:29;144.00;;;9.97;;
5630;SDS011;2837;50.990;7.124;2023-06-10T17:23:55;142.20;;;8.40;;
5630;SDS011;2837;50.990;7.124;2023-06-10T17:26:21;143.00;;;8.90;;
5630;SDS011;2837;50.990;7.124;2023-06-10T17:28:47;143.53;;;9.10;;
5630;SDS011;2837;50.990;7.124;2023-06-10T17:31:13;145.73;;;9.50;;
5630;SDS011;2837;50.990;7.124;2023-06-10T17:33:39;145.53;;;9.23;;
5630;SDS011;2837;50.990;7.124;2023-06-10T17:36:04;145.57;;;9.70;;
5630;SDS011;2837;50.990;7.124;2023-06-10T17:38:30;142.30;;;8.80;;
5630;SDS011;2837;50.990;7.124;2023-06-10T17:40:56;145.77;;;9.23;;
5630;SDS011;2837;50.990;7.124;2023-06-10T17:43:22;149.17;;;9.63;;
5630;SDS011;2837;50.990;7.124;2023-06-10T17:45:49;145.27;;;9.93;;
5630;SDS011;2837;50.990;7.124;2023-06-10T17:48:16;142.57;;;9.27;;
5630;SDS011;2837;50.990;7.124;2023-06-10T17:50:42;145.10;;;9.90;;
5630;SDS011;2837;50.990;7.124;2023-06-10T17:53:08;147.43;;;9.57;;
5630;SDS011;2837;50.990;7.124;2023-06-10T17:55:35;145.77;;;10.50;;
5630;SDS011;2837;50.990;7.124;2023-06-10T17:58:01;143.77;;;9.83;;
5630;SDS011;2837;50.990;7.124;2023-06-10T18:00:27;143.80;;;9.33;;
5630;SDS011;2837;50.990;7.124;2023-06-10T18:02:53;144.50;;;10.77;;
5630;SDS011;2837;50.990;7.124;2023-06-10T18:05:19;144.10;;;9.23;;
5630;SDS011;2837;50.990;7.124;2023-06-10T18:07:45;143.97;;;10.03;;
5630;SDS011;2837;50.990;7.124;2023-06-10T18:10:11;144.40;;;9.50;;
5630;SDS011;2837;50.990;7.124;2023-06-10T18:12:37;144.47;;;9.80;;
5630;SDS011;2837;50.990;7.124;2023-06-10T18:15:03;145.67;;;10.97;;
5630;SDS011;2837;50.990;7.124;2023-06-10T18:17:30;146.13;;;10.13;;
5630;SDS011;2837;50.990;7.124;2023-06-10T18:19:58;156.02;;;11.70;;
5630;SDS011;2837;50.990;7.124;2023-06-10T18:22:24;145.03;;;9.47;;
5630;SDS011;2837;50.990;7.124;2023-06-10T18:24:49;143.83;;;10.00;;
5630;SDS011;2837;50.990;7.124;2023-06-10T18:27:16;145.70;;;10.23;;
5630;SDS011;2837;50.990;7.124;2023-06-10T18:29:42;143.97;;;10.03;;
5630;SDS011;2837;50.990;7.124;2023-06-10T18:32:07;146.10;;;9.90;;
5630;SDS011;2837;50.990;7.124;2023-06-10T18:34:34;146.90;;;10.27;;
5630;SDS011;2837;50.990;7.124;2023-06-10T18:37:01;144.13;;;10.07;;
5630;SDS011;2837;50.990;7.124;2023-06-10T18:39:28;145.30;;;9.87;;
5630;SDS011;2837;50.990;7.124;2023-06-10T18:41:54;147.00;;;10.03;;
5630;SDS011;2837;50.990;7.124;2023-06-10T18:44:20;144.47;;;9.80;;
5630;SDS011;2837;50.990;7.124;2023-06-10T18:46:46;145.07;;;10.60;;
5630;SDS011;2837;50.990;7.124;2023-06-10T18:49:11;147.00;;;10.07;;
5630;SDS011;2837;50.990;7.124;2023-06-10T18:51:37;143.97;;;10.10;;
5630;SDS011;2837;50.990;7.124;2023-06-10T18:54:03;145.90;;;9.90;;
5630;SDS011;2837;50.990;7.124;2023-06-10T18:56:30;146.30;;;10.67;;
5630;SDS011;2837;50.990;7.124;2023-06-10T18:58:56;144.37;;;10.17;;
5630;SDS011;2837;50.990;7.124;2023-06-10T19:01:22;145.67;;;9.90;;
5630;SDS011;2837;50.990;7.124;2023-06-10T19:03:47;145.50;;;10.00;;
5630;SDS011;2837;50.990;7.124;2023-06-10T19:06:14;145.63;;;10.60;;
5630;SDS011;2837;50.990;7.124;2023-06-10T19:08:40;147.50;;;10.30;;
5630;SDS011;2837;50.990;7.124;2023-06-10T19:11:06;146.47;;;10.80;;
5630;SDS011;2837;50.990;7.124;2023-06-10T19:13:32;147.33;;;12.03;;
5630;SDS011;2837;50.990;7.124;2023-06-10T19:15:58;148.63;;;12.27;;
5630;SDS011;2837;50.990;7.124;2023-06-10T19:18:24;147.90;;;11.00;;
5630;SDS011;2837;50.990;7.124;2023-06-10T19:20:50;148.07;;;10.30;;
5630;SDS011;2837;50.990;7.124;2023-06-10T19:23:17;147.30;;;10.70;;
5630;SDS011;2837;50.990;7.124;2023-06-10T19:25:42;146.37;;;10.70;;
5630;SDS011;2837;50.990;7.124;2023-06-10T19:28:08;146.87;;;9.80;;
5630;SDS011;2837;50.990;7.124;2023-06-10T19:30:35;144.60;;;9.27;;
5630;SDS011;2837;50.990;7.124;2023-06-10T19:33:00;145.93;;;10.30;;
5630;SDS011;2837;50.990;7.124;2023-06-10T19:35:26;145.70;;;10.07;;
5630;SDS011;2837;50.990;7.124;2023-06-10T19:37:52;148.57;;;10.33;;
5630;SDS011;2837;50.990;7.124;2023-06-10T19:40:18;146.57;;;10.30;;
5630;SDS011;2837;50.990;7.124;2023-06-10T19:42:45;153.47;;;10.87;;
5630;SDS011;2837;50.990;7.124;2023-06-10T19:45:11;147.33;;;10.57;;
5630;SDS011;2837;50.990;7.124;2023-06-10T19:47:37;147.03;;;10.50;;
5630;SDS011;2837;50.990;7.124;2023-06-10T19:50:03;146.67;;;10.20;;
5630;SDS011;2837;50.990;7.124;2023-06-10T19:52:30;144.90;;;10.00;;
5630;SDS011;2837;50.990;7.124;2023-06-10T19:54:57;146.47;;;11.07;;
5630;SDS011;2837;50.990;7.124;2023-06-10T19:57:23;146.67;;;9.93;;
5630;SDS011;2837;50.990;7.124;2023-06-10T19:59:49;146.70;;;10.30;;
5630;SDS011;2837;50.990;7.124;2023-06-10T20:02:15;148.80;;;11.47;;
5630;SDS011;2837;50.990;7.124;2023-06-10T20:04:41;147.30;;;10.83;;
5630;SDS011;2837;50.990;7.124;2023-06-10T20:07:06;148.27;;;10.87;;
5630;SDS011;2837;50.990;7.124;2023-06-10T20:09:32;148.93;;;10.67;;
5630;SDS011;2837;50.990;7.124;2023-06-10T20:12:00;147.00;;;10.30;;
5630;SDS011;2837;50.990;7.124;2023-06-10T20:14:26;147.77;;;10.37;;
5630;SDS011;2837;50.990;7.124;2023-06-10T20:16:52;146.87;;;11.27;;
5630;SDS011;2837;50.990;7.124;2023-06-10T20:19:18;146.00;;;10.40;;
5630;SDS011;2837;50.990;7.124;2023-06-10T20:21:46;145.87;;;10.47;;
5630;SDS011;2837;50.990;7.124;2023-06-10T20:24:12;144.97;;;9.60;;
5630;SDS011;2837;50.990;7.124;2023-06-10T20:26:38;145.90;;;10.33;;
5630;SDS011;2837;50.990;7.124;2023-06-10T20:29:04;145.90;;;10.60;;
5630;SDS011;2837;50.990;7.124;2023-06-10T20:31:30;151.83;;;11.17;;
5630;SDS011;2837;50.990;7.124;2023-06-10T20:33:56;146.37;;;10.40;;
5630;SDS011;2837;50.990;7.124;2023-06-10T20:36:22;148.43;;;11.17;;
5630;SDS011;2837;50.990;7.124;2023-06-10T20:38:48;148.83;;;10.60;;
5630;SDS011;2837;50.990;7.124;2023-06-10T20:41:15;151.70;;;11.03;;
5630;SDS011;2837;50.990;7.124;2023-06-10T20:43:41;146.97;;;11.27;;
5630;SDS011;2837;50.990;7.124;2023-06-10T20:46:08;146.67;;;10.43;;
5630;SDS011;2837;50.990;7.124;2023-06-10T20:48:34;146.03;;;9.70;;
5630;SDS011;2837;50.990;7.124;2023-06-10T20:51:00;149.17;;;10.47;;
5630;SDS011;2837;50.990;7.124;2023-06-10T20:53:26;148.10;;;10.67;;
5630;SDS011;2837;50.990;7.124;2023-06-10T20:55:52;148.13;;;11.00;;
5630;SDS011;2837;50.990;7.124;2023-06-10T20:58:18;147.23;;;10.30;;
